Time;durP1;ratioP1;P1;durP2;ratioP2;P2;SDS_P1;SDS_P2;PMS_P1;PMS_P2;Temp;Humidity;BMP_temperature;BMP_pressure;BME280_temperature;BME280_humidity;BME280_pressure;Samples;Min_cycle;Max_cycle;Signal;HPM_P1;HPM_P2
2022/09/07 00:02:25;;;;;;;;;;;21.80;62.10;;;;;;5031885;28;1290;-66
2022/09/07 00:04:50;;;;;;;;;;;21.80;62.10;;;;;;5032809;28;1429;-66
2022/09/07 00:07:16;;;;;;;;;;;21.80;62.10;;;;;;5032926;28;1961;-66
2022/09/07 00:09:41;;;;;;;;;;;21.80;62.10;;;;;;5032635;28;1487;-66
2022/09/07 00:12:07;;;;;;;;;;;21.80;62.10;;;;;;5032729;28;1313;-66
2022/09/07 00:14:32;;;;;;;;;;;21.80;62.10;;;;;;5032566;28;1280;-66
2022/09/07 00:16:58;;;;;;;;;;;21.80;62.10;;;;;;5024238;28;1381;-66
2022/09/07 00:19:23;;;;;;;;;;;21.80;62.10;;;;;;5032958;28;1333;-66
2022/09/07 00:21:49;;;;;;;;;;;21.80;62.10;;;;;;5029832;28;1890;-66
2022/09/07 00:24:14;;;;;;;;;;;21.80;62.10;;;;;;5018628;28;1341;-66
2022/09/07 00:26:40;;;;;;;;;;;21.80;62.20;;;;;;5027555;28;1352;-66
2022/09/07 00:29:06;;;;;;;;;;;21.80;62.20;;;;;;5026575;28;2193;-66
2022/09/07 00:31:32;;;;;;;;;;;21.80;62.20;;;;;;5023035;28;1189;-66
2022/09/07 00:33:58;;;;;;;;;;;21.80;62.20;;;;;;5025867;28;1131;-66
2022/09/07 00:36:23;;;;;;;;;;;21.80;62.20;;;;;;5028109;28;1454;-66
2022/09/07 00:38:49;;;;;;;;;;;21.80;62.20;;;;;;5029201;28;1224;-66
2022/09/07 00:41:15;;;;;;;;;;;21.80;62.20;;;;;;5025928;28;1270;-66
2022/09/07 00:43:44;;;;;;;;;;;21.80;62.30;;;;;;5023564;28;1080;-66
2022/09/07 00:46:17;;;;;;;;;;;21.80;62.30;;;;;;5022311;28;1357;-66
2022/09/07 00:48:44;;;;;;;;;;;21.90;62.40;;;;;;5028303;28;1902;-66
2022/09/07 00:51:11;;;;;;;;;;;21.80;62.30;;;;;;5022307;28;1716;-66
2022/09/07 00:53:38;;;;;;;;;;;21.80;62.30;;;;;;5029246;28;1201;-66
2022/09/07 00:56:04;;;;;;;;;;;21.80;62.30;;;;;;5023543;28;1389;-66
2022/09/07 00:58:29;;;;;;;;;;;21.80;62.30;;;;;;5027392;28;1244;-66
2022/09/07 01:00:55;;;;;;;;;;;21.80;62.40;;;;;;5028539;28;1280;-66
2022/09/07 01:03:22;;;;;;;;;;;21.80;62.40;;;;;;5022075;28;1215;-66
2022/09/07 01:05:52;;;;;;;;;;;21.80;62.40;;;;;;5024663;28;1297;-65
2022/09/07 01:08:18;;;;;;;;;;;21.80;62.40;;;;;;5028212;28;1961;-66
2022/09/07 01:10:45;;;;;;;;;;;21.80;62.40;;;;;;5032243;28;1330;-66
2022/09/07 01:13:11;;;;;;;;;;;21.80;62.40;;;;;;5031584;28;1364;-67
2022/09/07 01:15:55;;;;;;;;;;;21.80;62.40;;;;;;5032249;28;1297;-67
2022/09/07 01:18:36;;;;;;;;;;;21.80;62.40;;;;;;5032113;28;1252;-67
2022/09/07 01:21:10;;;;;;;;;;;21.80;62.50;;;;;;5031563;28;1308;-67
2022/09/07 01:23:48;;;;;;;;;;;21.80;62.50;;;;;;5035620;28;1287;-67
2022/09/07 01:26:16;;;;;;;;;;;21.80;62.50;;;;;;5036153;28;1259;-67
2022/09/07 01:28:42;;;;;;;;;;;21.80;62.50;;;;;;5035988;28;1961;-67
2022/09/07 01:31:20;;;;;;;;;;;21.80;62.50;;;;;;5035515;28;1338;-67
2022/09/07 01:33:48;;;;;;;;;;;21.80;62.50;;;;;;5035792;28;1251;-67
2022/09/07 01:36:16;;;;;;;;;;;21.80;62.50;;;;;;5051063;22;1917;-64
2022/09/07 01:38:52;;;;;;;;;;;21.80;62.50;;;;;;5028233;28;1089;-64
2022/09/07 01:41:20;;;;;;;;;;;21.80;62.60;;;;;;5037335;28;1383;-64
2022/09/07 01:43:58;;;;;;;;;;;21.80;62.60;;;;;;5056159;28;1281;-64
2022/09/07 01:46:26;;;;;;;;;;;21.80;62.60;;;;;;5056114;28;1324;-64
2022/09/07 01:48:52;;;;;;;;;;;21.80;62.60;;;;;;5055735;28;1957;-64
2022/09/07 01:51:17;;;;;;;;;;;21.80;62.60;;;;;;5054656;28;1326;-64
2022/09/07 01:53:45;;;;;;;;;;;21.80;62.60;;;;;;5054671;28;1278;-64
2022/09/07 01:56:15;;;;;;;;;;;21.80;62.60;;;;;;5054868;28;1324;-63
2022/09/07 01:58:44;;;;;;;;;;;21.80;62.70;;;;;;5050890;28;1961;-62
2022/09/07 02:01:11;;;;;;;;;;;21.80;62.70;;;;;;5023814;28;1189;-64
2022/09/07 02:03:51;;;;;;;;;;;21.80;62.70;;;;;;5031041;28;1229;-66
2022/09/07 02:06:23;;;;;;;;;;;21.80;62.70;;;;;;5032091;28;1645;-66
2022/09/07 02:08:52;;;;;;;;;;;21.80;62.70;;;;;;5040888;28;1946;-65
2022/09/07 02:11:19;;;;;;;;;;;21.80;62.70;;;;;;5043196;28;1297;-65
2022/09/07 02:13:53;;;;;;;;;;;21.80;62.70;;;;;;5024959;28;1304;-65
2022/09/07 02:16:38;;;;;;;;;;;21.80;62.70;;;;;;5035746;28;1365;-65
2022/09/07 02:19:05;;;;;;;;;;;21.80;62.80;;;;;;5034619;28;1267;-65
2022/09/07 02:21:32;;;;;;;;;;;21.80;62.70;;;;;;5034185;28;1317;-64
2022/09/07 02:23:59;;;;;;;;;;;21.80;62.80;;;;;;5034219;28;1250;-64
2022/09/07 02:26:25;;;;;;;;;;;21.80;62.80;;;;;;5033726;28;1361;-64
2022/09/07 02:28:50;;;;;;;;;;;21.80;62.80;;;;;;5032942;28;1962;-65
2022/09/07 02:31:16;;;;;;;;;;;21.80;62.80;;;;;;5045890;28;1334;-63
2022/09/07 02:33:41;;;;;;;;;;;21.80;62.80;;;;;;5050056;28;1274;-64
2022/09/07 02:36:07;;;;;;;;;;;21.80;62.80;;;;;;5037486;28;1702;-63
2022/09/07 02:38:32;;;;;;;;;;;21.80;62.80;;;;;;5030023;28;1142;-63
2022/09/07 02:40:58;;;;;;;;;;;21.80;62.80;;;;;;5032215;28;1297;-64
2022/09/07 02:43:24;;;;;;;;;;;21.80;62.90;;;;;;5035138;28;1301;-64
2022/09/07 02:45:58;;;;;;;;;;;21.80;62.90;;;;;;5035024;28;1319;-64
2022/09/07 02:48:30;;;;;;;;;;;21.80;62.90;;;;;;5033788;28;1913;-63
2022/09/07 02:50:59;;;;;;;;;;;21.80;62.90;;;;;;5033664;28;1338;-62
2022/09/07 02:53:25;;;;;;;;;;;21.80;62.90;;;;;;5034739;28;1257;-64
2022/09/07 02:55:50;;;;;;;;;;;21.80;62.90;;;;;;5034904;28;1288;-64
2022/09/07 02:58:16;;;;;;;;;;;21.80;62.90;;;;;;5034970;28;1259;-65
2022/09/07 03:00:43;;;;;;;;;;;21.80;62.90;;;;;;5034843;28;1159;-63
2022/09/07 03:03:21;;;;;;;;;;;21.80;62.90;;;;;;5033366;28;1284;-64
2022/09/07 03:05:51;;;;;;;;;;;21.80;62.90;;;;;;5034350;28;1569;-64
2022/09/07 03:08:18;;;;;;;;;;;21.80;62.90;;;;;;5033565;28;1906;-65
2022/09/07 03:10:43;;;;;;;;;;;21.80;62.90;;;;;;5034572;28;1360;-63
2022/09/07 03:13:18;;;;;;;;;;;21.80;63.00;;;;;;5034314;28;1400;-64
2022/09/07 03:15:43;;;;;;;;;;;21.80;63.00;;;;;;5034527;28;1294;-63
2022/09/07 03:18:11;;;;;;;;;;;21.80;63.00;;;;;;5032954;28;1376;-65
2022/09/07 03:20:36;;;;;;;;;;;21.80;63.00;;;;;;5034693;28;1357;-63
2022/09/07 03:23:02;;;;;;;;;;;21.80;63.00;;;;;;5032993;28;1313;-63
2022/09/07 03:25:27;;;;;;;;;;;21.80;63.00;;;;;;5034080;28;1444;-64
2022/09/07 03:27:53;;;;;;;;;;;21.80;63.00;;;;;;5028171;28;1954;-65
2022/09/07 03:30:18;;;;;;;;;;;21.80;63.00;;;;;;5054322;28;1371;-65
2022/09/07 03:32:43;;;;;;;;;;;21.80;63.00;;;;;;5030178;28;1243;-66
2022/09/07 03:35:09;;;;;;;;;;;21.80;63.00;;;;;;5034096;28;1282;-65
2022/09/07 03:37:35;;;;;;;;;;;21.80;63.00;;;;;;5032779;28;1381;-66
2022/09/07 03:40:00;;;;;;;;;;;21.80;63.00;;;;;;5033079;28;1391;-66
2022/09/07 03:42:26;;;;;;;;;;;21.80;63.10;;;;;;5033565;28;1346;-65
2022/09/07 03:44:51;;;;;;;;;;;21.80;63.10;;;;;;5033416;28;1333;-65
2022/09/07 03:47:17;;;;;;;;;;;21.80;63.10;;;;;;5033723;28;1964;-66
2022/09/07 03:49:42;;;;;;;;;;;21.80;63.10;;;;;;5033734;28;1337;-66
2022/09/07 03:52:08;;;;;;;;;;;21.80;63.10;;;;;;5032321;28;1306;-66
2022/09/07 03:54:33;;;;;;;;;;;21.80;63.10;;;;;;5033591;28;1356;-65
2022/09/07 03:56:59;;;;;;;;;;;21.80;63.10;;;;;;5033701;28;1064;-66
2022/09/07 03:59:24;;;;;;;;;;;21.80;63.20;;;;;;5033756;28;1298;-67
2022/09/07 04:01:49;;;;;;;;;;;21.80;63.10;;;;;;5033539;28;1317;-67
2022/09/07 04:04:15;;;;;;;;;;;21.80;63.10;;;;;;5039608;28;1125;-67
2022/09/07 04:06:40;;;;;;;;;;;21.80;63.10;;;;;;5033310;28;1704;-67
2022/09/07 04:09:06;;;;;;;;;;;21.80;63.10;;;;;;5033431;28;1963;-67
2022/09/07 04:11:32;;;;;;;;;;;21.80;63.10;;;;;;5032139;28;1328;-65
2022/09/07 04:13:57;;;;;;;;;;;21.80;63.90;;;;;;5033458;28;1326;-63
2022/09/07 04:16:24;;;;;;;;;;;21.80;63.10;;;;;;5033238;28;1284;-63
2022/09/07 04:18:49;;;;;;;;;;;21.80;63.20;;;;;;5033115;28;1290;-63
2022/09/07 04:21:15;;;;;;;;;;;21.80;63.20;;;;;;5031959;28;1407;-66
2022/09/07 04:23:41;;;;;;;;;;;21.80;63.20;;;;;;5033147;28;1115;-66
2022/09/07 04:26:11;;;;;;;;;;;21.80;63.20;;;;;;5031948;28;1284;-65
2022/09/07 04:28:36;;;;;;;;;;;21.80;63.20;;;;;;5028277;28;1902;-65
2022/09/07 04:31:01;;;;;;;;;;;21.80;63.20;;;;;;5043783;28;1345;-65
2022/09/07 04:33:29;;;;;;;;;;;21.80;63.20;;;;;;5033061;28;1261;-64
2022/09/07 04:35:54;;;;;;;;;;;21.80;63.20;;;;;;5032783;28;1347;-62
2022/09/07 04:38:20;;;;;;;;;;;21.80;63.30;;;;;;5033082;28;1314;-64
2022/09/07 04:40:45;;;;;;;;;;;21.80;63.20;;;;;;5032954;28;1389;-64
2022/09/07 04:43:11;;;;;;;;;;;21.80;63.20;;;;;;5032789;28;1290;-64
2022/09/07 04:45:37;;;;;;;;;;;21.80;63.20;;;;;;5032873;28;1339;-64
2022/09/07 04:48:03;;;;;;;;;;;21.80;63.20;;;;;;5031510;28;1973;-65
2022/09/07 04:50:28;;;;;;;;;;;21.80;63.30;;;;;;5032972;28;1328;-65
2022/09/07 04:52:54;;;;;;;;;;;21.80;63.20;;;;;;5032382;28;1324;-64
2022/09/07 04:55:19;;;;;;;;;;;21.80;63.30;;;;;;5032829;28;1306;-65
2022/09/07 04:57:47;;;;;;;;;;;21.80;63.30;;;;;;5032655;28;1345;-65
2022/09/07 05:00:13;;;;;;;;;;;21.80;63.30;;;;;;5031753;28;1291;-65
2022/09/07 05:02:39;;;;;;;;;;;21.80;63.30;;;;;;5030995;28;1284;-63
2022/09/07 05:05:05;;;;;;;;;;;21.80;63.30;;;;;;5032497;28;1465;-65
2022/09/07 05:07:30;;;;;;;;;;;21.80;63.30;;;;;;5032747;28;1894;-63
2022/09/07 05:09:56;;;;;;;;;;;21.80;63.30;;;;;;5032754;28;1279;-63
2022/09/07 05:12:21;;;;;;;;;;;21.80;63.30;;;;;;5032414;28;1256;-65
2022/09/07 05:14:47;;;;;;;;;;;21.80;63.30;;;;;;5032392;28;1349;-65
2022/09/07 05:17:12;;;;;;;;;;;21.80;63.30;;;;;;5032509;28;1296;-65
2022/09/07 05:19:37;;;;;;;;;;;21.80;63.30;;;;;;5032814;28;1308;-65
2022/09/07 05:22:03;;;;;;;;;;;21.80;63.30;;;;;;5032533;28;1327;-63
2022/09/07 05:24:28;;;;;;;;;;;21.80;63.30;;;;;;5032376;28;1273;-63
2022/09/07 05:26:54;;;;;;;;;;;21.80;63.30;;;;;;5028242;28;1218;-67
2022/09/07 05:29:19;;;;;;;;;;;21.80;63.30;;;;;;5040658;28;1898;-65
2022/09/07 05:31:45;;;;;;;;;;;21.80;63.30;;;;;;5040159;28;1098;-65
2022/09/07 05:34:10;;;;;;;;;;;21.80;63.30;;;;;;5032361;28;1245;-65
2022/09/07 05:36:36;;;;;;;;;;;21.80;63.40;;;;;;5032289;28;1268;-64
2022/09/07 05:39:02;;;;;;;;;;;21.80;63.40;;;;;;5032342;28;1293;-64
2022/09/07 05:41:27;;;;;;;;;;;21.80;64.10;;;;;;5030962;28;1339;-64
2022/09/07 05:43:53;;;;;;;;;;;21.80;63.40;;;;;;5032785;28;1283;-63
2022/09/07 05:46:18;;;;;;;;;;;21.80;63.40;;;;;;5032099;28;1394;-65
2022/09/07 05:48:44;;;;;;;;;;;21.80;63.40;;;;;;5032128;28;1957;-65
2022/09/07 05:51:10;;;;;;;;;;;21.80;63.40;;;;;;5030823;28;1242;-65
2022/09/07 05:53:36;;;;;;;;;;;21.80;63.50;;;;;;5031055;28;1329;-64
2022/09/07 05:56:03;;;;;;;;;;;21.80;63.40;;;;;;5032247;28;1283;-64
2022/09/07 05:58:28;;;;;;;;;;;21.80;63.40;;;;;;5032263;28;1292;-65
2022/09/07 06:01:00;;;;;;;;;;;21.80;63.40;;;;;;5032072;28;1323;-63
2022/09/07 06:03:26;;;;;;;;;;;21.80;63.40;;;;;;5032242;28;1309;-64
2022/09/07 06:05:58;;;;;;;;;;;21.80;63.40;;;;;;5032214;28;1651;-64
2022/09/07 06:08:23;;;;;;;;;;;21.80;63.40;;;;;;5026578;28;2235;-66
2022/09/07 06:10:49;;;;;;;;;;;21.80;63.40;;;;;;5032708;28;1929;-66
2022/09/07 06:13:14;;;;;;;;;;;21.80;63.50;;;;;;5033111;28;1377;-64
2022/09/07 06:15:40;;;;;;;;;;;21.80;63.50;;;;;;5037213;28;1302;-66
2022/09/07 06:18:06;;;;;;;;;;;21.80;63.60;;;;;;5034099;28;1932;-66
2022/09/07 06:20:31;;;;;;;;;;;21.80;63.60;;;;;;5024499;28;1211;-66
2022/09/07 06:22:57;;;;;;;;;;;21.80;63.70;;;;;;5039911;28;1311;-66
2022/09/07 06:25:22;;;;;;;;;;;21.80;63.60;;;;;;5054171;28;1289;-65
2022/09/07 06:27:48;;;;;;;;;;;21.80;63.60;;;;;;5042090;28;1891;-66
2022/09/07 06:30:14;;;;;;;;;;;21.80;63.70;;;;;;5034544;28;1254;-65
2022/09/07 06:32:39;;;;;;;;;;;21.80;63.70;;;;;;5030188;28;1136;-66
2022/09/07 06:35:05;;;;;;;;;;;21.80;63.70;;;;;;5034183;28;1266;-65
2022/09/07 06:37:30;;;;;;;;;;;21.80;63.70;;;;;;5034261;28;1289;-67
2022/09/07 06:39:56;;;;;;;;;;;21.80;63.70;;;;;;5034291;28;1286;-65
2022/09/07 06:42:21;;;;;;;;;;;21.90;63.80;;;;;;5033630;28;1154;-67
2022/09/07 06:44:47;;;;;;;;;;;21.80;63.70;;;;;;5033840;28;1310;-66
2022/09/07 06:47:12;;;;;;;;;;;21.90;63.80;;;;;;5032850;28;1340;-64
2022/09/07 06:49:37;;;;;;;;;;;21.80;63.70;;;;;;5034261;28;1911;-63
2022/09/07 06:52:03;;;;;;;;;;;21.80;63.70;;;;;;5033626;28;1324;-65
2022/09/07 06:54:28;;;;;;;;;;;21.80;63.70;;;;;;5033812;28;1349;-65
2022/09/07 06:56:54;;;;;;;;;;;21.80;63.70;;;;;;5034973;28;1297;-65
2022/09/07 06:59:19;;;;;;;;;;;21.80;63.70;;;;;;5054559;28;1324;-64
2022/09/07 07:01:45;;;;;;;;;;;21.80;63.70;;;;;;5054438;28;1349;-64
2022/09/07 07:04:10;;;;;;;;;;;21.90;63.70;;;;;;5054551;28;1302;-64
2022/09/07 07:06:37;;;;;;;;;;;21.80;63.70;;;;;;5035564;28;1663;-66
2022/09/07 07:09:03;;;;;;;;;;;21.90;63.80;;;;;;5034680;28;1910;-66
2022/09/07 07:11:29;;;;;;;;;;;21.90;63.70;;;;;;5033203;28;1258;-65
2022/09/07 07:13:55;;;;;;;;;;;21.80;63.70;;;;;;5034482;28;1332;-64
2022/09/07 07:16:20;;;;;;;;;;;21.80;63.70;;;;;;5034377;28;1356;-65
2022/09/07 07:18:51;;;;;;;;;;;21.80;63.70;;;;;;5034348;28;1361;-66
2022/09/07 07:21:16;;;;;;;;;;;21.80;63.80;;;;;;5034155;28;1296;-65
2022/09/07 07:23:41;;;;;;;;;;;21.80;63.70;;;;;;5042574;28;1270;-65
2022/09/07 07:26:09;;;;;;;;;;;21.80;63.70;;;;;;5045762;28;1343;-65
2022/09/07 07:28:34;;;;;;;;;;;21.80;63.80;;;;;;5034337;28;1965;-64
2022/09/07 07:31:00;;;;;;;;;;;21.80;63.80;;;;;;5034022;28;1095;-66
2022/09/07 07:33:29;;;;;;;;;;;21.80;63.80;;;;;;5034236;28;898;-63
2022/09/07 07:36:05;;;;;;;;;;;21.80;63.80;;;;;;5046312;22;2069;-67
2022/09/07 07:38:30;;;;;;;;;;;21.80;63.80;;;;;;5014801;28;874;-67
2022/09/07 07:40:56;;;;;;;;;;;21.80;63.80;;;;;;5014003;28;910;-67
2022/09/07 07:43:21;;;;;;;;;;;21.80;63.80;;;;;;5013128;28;860;-67
2022/09/07 07:45:47;;;;;;;;;;;21.80;63.80;;;;;;5014349;28;1303;-67
2022/09/07 07:48:13;;;;;;;;;;;21.90;64.00;;;;;;5014128;28;1906;-67
2022/09/07 07:50:38;;;;;;;;;;;21.80;63.90;;;;;;5014731;28;871;-67
2022/09/07 07:53:04;;;;;;;;;;;21.80;63.90;;;;;;5012603;28;863;-68
2022/09/07 07:55:29;;;;;;;;;;;21.90;64.00;;;;;;5014358;28;1200;-68
2022/09/07 07:57:55;;;;;;;;;;;21.80;64.00;;;;;;5014141;28;1071;-68
2022/09/07 08:00:21;;;;;;;;;;;21.80;64.00;;;;;;5014034;28;1060;-68
2022/09/07 08:02:46;;;;;;;;;;;21.80;63.90;;;;;;5013834;28;840;-68
2022/09/07 08:05:12;;;;;;;;;;;21.90;64.00;;;;;;5013853;28;2330;-67
2022/09/07 08:07:37;;;;;;;;;;;21.80;64.00;;;;;;5042501;28;1899;-67
2022/09/07 08:10:03;;;;;;;;;;;21.80;64.00;;;;;;5033304;28;1074;-67
2022/09/07 08:12:30;;;;;;;;;;;21.80;64.00;;;;;;5040741;28;1391;-67
2022/09/07 08:14:55;;;;;;;;;;;21.80;64.00;;;;;;5034920;28;1118;-68
2022/09/07 08:17:20;;;;;;;;;;;21.90;64.10;;;;;;5037342;28;1271;-67
2022/09/07 08:19:46;;;;;;;;;;;21.90;64.10;;;;;;5042850;28;1351;-68
2022/09/07 08:22:12;;;;;;;;;;;21.90;64.10;;;;;;5053143;28;852;-67
2022/09/07 08:24:37;;;;;;;;;;;21.90;64.10;;;;;;5035147;28;876;-68
2022/09/07 08:27:03;;;;;;;;;;;21.80;64.00;;;;;;5046205;28;1187;-67
2022/09/07 08:29:28;;;;;;;;;;;21.90;64.10;;;;;;5033268;28;1902;-67
2022/09/07 08:31:54;;;;;;;;;;;21.90;64.10;;;;;;5039990;28;1088;-67
2022/09/07 08:34:20;;;;;;;;;;;21.90;64.10;;;;;;5051801;28;812;-68
2022/09/07 08:36:46;;;;;;;;;;;21.80;64.00;;;;;;5052954;28;1196;-68
2022/09/07 08:39:11;;;;;;;;;;;21.80;64.10;;;;;;5052747;28;969;-68
2022/09/07 08:41:49;;;;;;;;;;;21.90;64.10;;;;;;5034787;28;1253;-68
2022/09/07 08:44:22;;;;;;;;;;;21.90;64.20;;;;;;5051766;28;1333;-68
2022/09/07 08:46:48;;;;;;;;;;;21.80;64.10;;;;;;5052789;28;1329;-68
2022/09/07 08:49:33;;;;;;;;;;;21.90;64.20;;;;;;5051582;28;1953;-67
2022/09/07 08:52:02;;;;;;;;;;;21.90;64.10;;;;;;5052533;28;974;-68
2022/09/07 08:54:27;;;;;;;;;;;21.90;64.20;;;;;;5051419;28;1002;-67
2022/09/07 08:56:54;;;;;;;;;;;21.90;64.10;;;;;;5051471;28;1177;-67
2022/09/07 08:59:27;;;;;;;;;;;21.90;64.20;;;;;;5052647;28;846;-67
2022/09/07 09:01:53;;;;;;;;;;;21.90;64.20;;;;;;5045545;28;2227;-67
2022/09/07 09:04:20;;;;;;;;;;;21.90;64.20;;;;;;5030122;28;1258;-67
2022/09/07 09:06:51;;;;;;;;;;;21.90;64.20;;;;;;5048847;28;1268;-66
2022/09/07 09:09:20;;;;;;;;;;;21.90;64.20;;;;;;5039446;28;1959;-67
2022/09/07 09:11:46;;;;;;;;;;;21.90;64.10;;;;;;5014858;28;1474;-68
2022/09/07 09:14:15;;;;;;;;;;;21.80;64.10;;;;;;5032822;28;835;-68
2022/09/07 09:16:40;;;;;;;;;;;21.80;64.10;;;;;;5032489;28;1311;-68
2022/09/07 09:19:20;;;;;;;;;;;21.90;64.40;;;;;;5032777;28;740;-67
2022/09/07 09:21:46;;;;;;;;;;;21.90;64.20;;;;;;5031534;28;950;-67
2022/09/07 09:24:13;;;;;;;;;;;21.90;64.20;;;;;;5030559;28;2253;-66
2022/09/07 09:26:39;;;;;;;;;;;21.90;64.20;;;;;;5026271;28;1336;-67
2022/09/07 09:29:14;;;;;;;;;;;21.90;64.20;;;;;;5029860;28;1898;-66
2022/09/07 09:31:39;;;;;;;;;;;21.90;64.30;;;;;;5031264;28;1639;-68
2022/09/07 09:34:04;;;;;;;;;;;21.90;64.20;;;;;;5030295;28;1104;-68
2022/09/07 09:36:33;;;;;;;;;;;21.80;64.20;;;;;;5031521;28;1323;-68
2022/09/07 09:38:59;;;;;;;;;;;21.90;64.30;;;;;;5030190;28;1469;-68
2022/09/07 09:41:25;;;;;;;;;;;21.80;64.20;;;;;;5030037;28;1672;-68
2022/09/07 09:43:50;;;;;;;;;;;21.90;64.30;;;;;;5032288;28;1226;-68
2022/09/07 09:46:17;;;;;;;;;;;21.90;64.30;;;;;;5035288;28;1197;-66
2022/09/07 09:48:46;;;;;;;;;;;21.90;64.30;;;;;;5033904;28;1969;-67
2022/09/07 09:51:12;;;;;;;;;;;21.90;64.30;;;;;;5033849;28;799;-67
2022/09/07 09:53:39;;;;;;;;;;;21.80;64.20;;;;;;5033915;28;1194;-66
2022/09/07 09:56:04;;;;;;;;;;;21.90;64.30;;;;;;5033817;28;1296;-68
2022/09/07 09:58:30;;;;;;;;;;;21.90;64.30;;;;;;5035006;28;1064;-66
2022/09/07 10:00:55;;;;;;;;;;;21.90;64.30;;;;;;5033193;28;1299;-66
2022/09/07 10:03:22;;;;;;;;;;;21.90;64.30;;;;;;5032610;28;1370;-67
2022/09/07 10:05:47;;;;;;;;;;;21.90;64.30;;;;;;5033289;28;2065;-67
2022/09/07 10:08:27;;;;;;;;;;;21.90;64.40;;;;;;5033600;28;1953;-66
2022/09/07 10:10:56;;;;;;;;;;;21.90;64.40;;;;;;5033090;28;823;-66
2022/09/07 10:13:23;;;;;;;;;;;21.90;64.40;;;;;;5033109;28;796;-66
2022/09/07 10:15:51;;;;;;;;;;;21.90;64.40;;;;;;5033721;28;1264;-66
2022/09/07 10:18:18;;;;;;;;;;;21.90;64.40;;;;;;5034271;28;792;-66
2022/09/07 10:20:43;;;;;;;;;;;21.90;64.40;;;;;;5033095;28;899;-66
2022/09/07 10:23:18;;;;;;;;;;;21.90;64.40;;;;;;5032281;28;1216;-66
2022/09/07 10:25:43;;;;;;;;;;;21.90;64.40;;;;;;5032761;28;1264;-66
2022/09/07 10:28:12;;;;;;;;;;;21.90;64.40;;;;;;5034051;28;1903;-67
2022/09/07 10:30:56;;;;;;;;;;;21.90;64.40;;;;;;5034076;28;1464;-67
2022/09/07 10:33:26;;;;;;;;;;;21.90;64.40;;;;;;5033997;28;874;-67
2022/09/07 10:35:57;;;;;;;;;;;21.90;64.40;;;;;;5032223;28;1221;-67
2022/09/07 10:38:24;;;;;;;;;;;21.90;64.40;;;;;;5032879;28;788;-67
2022/09/07 10:40:50;;;;;;;;;;;21.90;64.40;;;;;;5033824;28;847;-67
2022/09/07 10:43:15;;;;;;;;;;;21.90;64.40;;;;;;5033854;28;851;-68
2022/09/07 10:45:58;;;;;;;;;;;21.90;64.50;;;;;;5033621;28;1223;-67
2022/09/07 10:48:27;;;;;;;;;;;21.90;64.50;;;;;;5032360;28;1972;-68
2022/09/07 10:50:53;;;;;;;;;;;21.80;64.40;;;;;;5032471;28;1081;-67
2022/09/07 10:53:25;;;;;;;;;;;21.90;64.50;;;;;;5032363;28;1005;-68
2022/09/07 10:56:04;;;;;;;;;;;21.80;64.40;;;;;;5033503;28;1312;-67
2022/09/07 10:58:32;;;;;;;;;;;21.90;64.50;;;;;;5033018;28;840;-67
2022/09/07 11:01:07;;;;;;;;;;;21.90;64.50;;;;;;5032367;28;1473;-67
2022/09/07 11:03:51;;;;;;;;;;;21.80;64.40;;;;;;5032824;28;868;-67
2022/09/07 11:06:17;;;;;;;;;;;21.90;64.50;;;;;;5033920;28;1288;-67
2022/09/07 11:08:49;;;;;;;;;;;21.90;64.50;;;;;;5033817;28;1898;-67
2022/09/07 11:11:25;;;;;;;;;;;21.90;64.50;;;;;;5033746;28;805;-67
2022/09/07 11:13:51;;;;;;;;;;;21.90;64.50;;;;;;5032547;28;890;-67
2022/09/07 11:16:20;;;;;;;;;;;21.90;64.50;;;;;;5032643;28;1236;-67
2022/09/07 11:18:49;;;;;;;;;;;21.90;64.50;;;;;;5032544;28;890;-67
2022/09/07 11:21:16;;;;;;;;;;;21.90;64.50;;;;;;5032359;28;1096;-67
2022/09/07 11:23:43;;;;;;;;;;;21.90;64.50;;;;;;5033208;28;1724;-68
2022/09/07 11:26:27;;;;;;;;;;;21.90;64.50;;;;;;5031820;28;1586;-67
2022/09/07 11:28:58;;;;;;;;;;;21.90;64.50;;;;;;5032913;28;1968;-68
2022/09/07 11:31:31;;;;;;;;;;;21.90;64.50;;;;;;5034161;28;1304;-67
2022/09/07 11:34:01;;;;;;;;;;;21.90;64.50;;;;;;5030655;28;1242;-69
2022/09/07 11:36:28;;;;;;;;;;;21.90;64.50;;;;;;5031607;28;1423;-69
2022/09/07 11:38:56;;;;;;;;;;;21.90;64.50;;;;;;5029049;28;1447;-68
2022/09/07 11:41:38;;;;;;;;;;;21.90;64.50;;;;;;5030083;28;1609;-67
2022/09/07 11:44:04;;;;;;;;;;;21.90;64.50;;;;;;5030365;28;1486;-66
2022/09/07 11:46:36;;;;;;;;;;;21.90;64.60;;;;;;5032561;28;1285;-67
2022/09/07 11:49:02;;;;;;;;;;;21.90;64.60;;;;;;5031569;28;1954;-67
2022/09/07 11:51:38;;;;;;;;;;;21.90;64.60;;;;;;5031037;28;1318;-66
2022/09/07 11:54:12;;;;;;;;;;;21.90;64.50;;;;;;5010912;28;1962;-66
2022/09/07 11:56:37;;;;;;;;;;;21.90;64.60;;;;;;5030631;28;1390;-67
2022/09/07 11:59:03;;;;;;;;;;;21.90;64.50;;;;;;5031680;28;1201;-67
2022/09/07 12:01:46;;;;;;;;;;;21.90;64.40;;;;;;5032935;28;1335;-68
2022/09/07 12:04:15;;;;;;;;;;;21.90;64.20;;;;;;5031835;28;1205;-68
2022/09/07 12:06:49;;;;;;;;;;;21.90;64.10;;;;;;5032265;28;1386;-69
2022/09/07 12:09:29;;;;;;;;;;;21.90;64.10;;;;;;5026941;28;1890;-68
2022/09/07 12:12:04;;;;;;;;;;;22.00;64.00;;;;;;5026558;28;1236;-68
2022/09/07 12:14:45;;;;;;;;;;;22.00;64.00;;;;;;5031825;28;1509;-68
2022/09/07 12:17:10;;;;;;;;;;;22.00;64.00;;;;;;5023340;28;1660;-67
2022/09/07 12:19:35;;;;;;;;;;;22.00;64.00;;;;;;5032818;28;1212;-67
2022/09/07 12:22:01;;;;;;;;;;;22.00;64.10;;;;;;5031350;28;1287;-67
2022/09/07 12:24:32;;;;;;;;;;;22.00;64.10;;;;;;5031409;28;1225;-67
2022/09/07 12:26:58;;;;;;;;;;;22.00;64.10;;;;;;5030601;28;1252;-68
2022/09/07 12:29:24;;;;;;;;;;;22.00;63.90;;;;;;5032902;28;1958;-68
2022/09/07 12:31:53;;;;;;;;;;;22.00;63.80;;;;;;5039474;28;1155;-69
2022/09/07 12:34:28;;;;;;;;;;;22.00;63.70;;;;;;5051485;28;848;-68
2022/09/07 12:36:54;;;;;;;;;;;22.00;63.70;;;;;;5052523;28;1306;-69
2022/09/07 12:39:24;;;;;;;;;;;22.10;63.80;;;;;;5051496;28;907;-69
2022/09/07 12:41:53;;;;;;;;;;;22.10;63.80;;;;;;5052398;28;781;-68
2022/09/07 12:44:19;;;;;;;;;;;22.10;63.70;;;;;;5051389;28;828;-68
2022/09/07 12:46:46;;;;;;;;;;;22.10;63.70;;;;;;5051267;28;1316;-67
2022/09/07 12:49:17;;;;;;;;;;;22.10;63.80;;;;;;5052586;28;1913;-68
2022/09/07 12:51:43;;;;;;;;;;;22.10;63.90;;;;;;5052543;28;765;-68
2022/09/07 12:54:15;;;;;;;;;;;22.10;63.90;;;;;;5051231;28;1202;-68
2022/09/07 12:56:53;;;;;;;;;;;22.10;63.90;;;;;;5052275;28;1295;-68
2022/09/07 12:59:34;;;;;;;;;;;22.10;64.00;;;;;;5052725;28;1001;-68
2022/09/07 13:02:03;;;;;;;;;;;22.10;63.90;;;;;;5052327;28;851;-68
2022/09/07 13:04:28;;;;;;;;;;;22.10;63.90;;;;;;5051437;28;800;-68
2022/09/07 13:07:08;;;;;;;;;;;22.10;63.90;;;;;;5052501;28;1142;-68
2022/09/07 13:09:34;;;;;;;;;;;22.10;64.00;;;;;;5052641;28;1898;-69
2022/09/07 13:12:03;;;;;;;;;;;22.10;64.00;;;;;;5051030;28;827;-69
2022/09/07 13:14:29;;;;;;;;;;;22.10;64.00;;;;;;5052747;28;881;-69
2022/09/07 13:17:13;;;;;;;;;;;22.10;64.00;;;;;;5053067;28;1283;-69
2022/09/07 13:19:50;;;;;;;;;;;22.10;64.00;;;;;;5056735;28;796;-68
2022/09/07 13:22:28;;;;;;;;;;;22.10;64.00;;;;;;5056395;28;1241;-68
2022/09/07 13:24:54;;;;;;;;;;;22.10;64.00;;;;;;5056623;28;820;-68
2022/09/07 13:27:23;;;;;;;;;;;22.10;64.00;;;;;;5048472;28;1263;-68
2022/09/07 13:30:02;;;;;;;;;;;22.10;64.40;;;;;;5036728;28;1894;-69
2022/09/07 13:32:30;;;;;;;;;;;22.10;64.00;;;;;;5048277;28;1168;-69
2022/09/07 13:35:04;;;;;;;;;;;22.10;64.10;;;;;;5055122;28;914;-69
2022/09/07 13:37:53;;;;;;;;;;;22.10;64.10;;;;;;5055373;28;1272;-70
2022/09/07 13:40:25;;;;;;;;;;;22.10;64.10;;;;;;5032057;28;1886;-68
2022/09/07 13:42:51;;;;;;;;;;;22.10;64.10;;;;;;5033224;28;1224;-68
2022/09/07 13:45:35;;;;;;;;;;;22.10;64.10;;;;;;5033413;28;1126;-68
2022/09/07 13:48:19;;;;;;;;;;;22.10;64.10;;;;;;5034855;28;1961;-68
2022/09/07 13:51:03;;;;;;;;;;;22.10;64.10;;;;;;5035028;28;942;-68
2022/09/07 13:53:40;;;;;;;;;;;22.10;64.10;;;;;;5036003;28;831;-68
2022/09/07 13:56:09;;;;;;;;;;;22.10;64.10;;;;;;5035867;28;1212;-68
2022/09/07 13:58:35;;;;;;;;;;;22.10;64.00;;;;;;5034755;28;808;-68
2022/09/07 14:01:04;;;;;;;;;;;22.10;64.00;;;;;;5050813;28;828;-68
2022/09/07 14:03:38;;;;;;;;;;;22.20;64.10;;;;;;5034662;28;867;-67
2022/09/07 14:06:33;;;;;;;;;;;22.20;64.00;;;;;;5034516;28;1221;-67
2022/09/07 14:09:14;;;;;;;;;;;22.20;63.90;;;;;;5031050;28;1894;-69
2022/09/07 14:11:40;;;;;;;;;;;22.20;63.80;;;;;;5030982;28;2086;-67
2022/09/07 14:14:07;;;;;;;;;;;22.20;63.80;;;;;;5034944;28;1118;-68
2022/09/07 14:16:33;;;;;;;;;;;22.20;63.80;;;;;;5033969;28;1276;-67
2022/09/07 14:18:58;;;;;;;;;;;22.20;63.80;;;;;;5033307;28;1179;-67
2022/09/07 14:21:24;;;;;;;;;;;22.20;63.80;;;;;;5017091;28;1116;-68
2022/09/07 14:23:50;;;;;;;;;;;22.20;63.80;;;;;;5035603;28;1213;-67
2022/09/07 14:26:21;;;;;;;;;;;22.20;63.70;;;;;;5034242;28;1295;-68
2022/09/07 14:28:51;;;;;;;;;;;22.20;63.80;;;;;;5033502;28;1898;-66
2022/09/07 14:31:17;;;;;;;;;;;22.20;63.70;;;;;;5037023;28;1073;-67
2022/09/07 14:34:04;;;;;;;;;;;22.20;63.70;;;;;;5054123;28;827;-67
2022/09/07 14:36:33;;;;;;;;;;;22.20;63.80;;;;;;5054572;28;1235;-68
2022/09/07 14:38:58;;;;;;;;;;;22.20;64.50;;;;;;5053916;28;779;-67